createdAt,value
2022-12-01T00:01:10.226Z,98819.00
2022-12-01T00:03:37.450Z,98820.41
2022-12-01T00:06:06.529Z,98819.00
2022-12-01T00:08:33.826Z,98815.63
2022-12-01T00:11:05.868Z,98817.31
2022-12-01T00:13:33.379Z,98815.34
2022-12-01T00:16:10.879Z,98807.84
2022-12-01T00:18:37.616Z,98813.22
2022-12-01T00:21:04.294Z,98813.78
2022-12-01T00:23:30.898Z,98799.41
2022-12-01T00:26:04.048Z,98797.44
2022-12-01T00:28:30.604Z,98790.50
2022-12-01T00:30:57.261Z,98791.06
2022-12-01T00:33:23.894Z,98789.53
2022-12-01T00:35:50.451Z,98792.91
2022-12-01T00:38:16.974Z,98786.13
2022-12-01T00:40:43.596Z,98790.38
2022-12-01T00:43:10.193Z,98788.94
2022-12-01T00:45:36.830Z,98791.06
2022-12-01T00:48:03.547Z,98788.38
2022-12-01T00:50:30.842Z,98780.63
2022-12-01T00:52:57.436Z,98774.59
2022-12-01T00:55:24.078Z,98771.91
2022-12-01T00:57:50.659Z,98776.25
2022-12-01T01:00:17.558Z,98774.31
2022-12-01T01:02:44.480Z,98767.97
2022-12-01T01:05:11.142Z,98764.69
2022-12-01T01:07:37.906Z,98766.56
2022-12-01T01:10:05.169Z,98756.00
2022-12-01T01:12:31.836Z,98768.41
2022-12-01T01:14:58.468Z,98764.00
2022-12-01T01:17:25.082Z,98766.72
2022-12-01T01:19:53.313Z,98760.38
2022-12-01T01:22:20.232Z,98757.16
2022-12-01T01:24:46.842Z,98753.47
2022-12-01T01:27:13.412Z,98758.84
2022-12-01T01:29:40.024Z,98758.53
2022-12-01T01:32:06.659Z,98758.97
2022-12-01T01:34:33.222Z,98751.66
2022-12-01T01:36:59.869Z,98753.31
2022-12-01T01:39:26.463Z,98751.78
2022-12-01T01:41:53.056Z,98751.47
2022-12-01T01:44:44.304Z,98751.66
2022-12-01T01:47:12.058Z,98741.47
2022-12-01T01:49:39.535Z,98744.59
2022-12-01T01:52:06.203Z,98739.75
2022-12-01T01:54:43.925Z,98745.13
2022-12-01T01:57:15.501Z,98746.09
2022-12-01T01:59:50.407Z,98734.50
2022-12-01T02:02:17.598Z,98730.56
2022-12-01T02:04:51.347Z,98730.44
2022-12-01T02:07:19.653Z,98725.91
2022-12-01T02:09:46.976Z,98718.31
2022-12-01T02:12:47.068Z,98714.38
2022-12-01T02:15:37.947Z,98712.50
2022-12-01T02:18:10.516Z,98714.47
2022-12-01T02:21:01.982Z,98710.94
2022-12-01T02:24:05.932Z,98712.31
2022-12-01T02:26:53.393Z,98708.09
2022-12-01T02:29:47.749Z,98714.28
2022-12-01T02:32:33.318Z,98715.75
2022-12-01T02:35:07.780Z,98705.72
2022-12-01T02:37:38.148Z,98705.94
2022-12-01T02:40:36.740Z,98708.81
2022-12-01T02:43:40.534Z,98718.22
2022-12-01T02:46:20.829Z,98713.44
2022-12-01T02:48:51.894Z,98703.34
2022-12-01T02:51:25.557Z,98704.63
2022-12-01T02:53:53.521Z,98713.06
2022-12-01T02:56:22.773Z,98712.38
2022-12-01T02:58:49.863Z,98708.53
2022-12-01T03:01:35.244Z,98708.38
2022-12-01T03:04:01.834Z,98710.22
2022-12-01T03:06:56.369Z,98723.09
2022-12-01T03:09:49.383Z,98714.59
2022-12-01T03:12:37.433Z,98709.00
2022-12-01T03:15:04.091Z,98710.97
2022-12-01T03:17:39.035Z,98710.97
2022-12-01T03:20:31.951Z,98708.16
2022-12-01T03:23:13.439Z,98698.13
2022-12-01T03:25:43.972Z,98709.00
2022-12-01T03:28:22.892Z,98698.28
2022-12-01T03:30:55.492Z,98696.41
2022-12-01T03:33:30.762Z,98706.59
2022-12-01T03:36:08.062Z,98703.44
2022-12-01T03:38:37.345Z,98706.78
2022-12-01T03:41:10.461Z,98703.38
2022-12-01T03:43:45.133Z,98707.03
2022-12-01T03:46:22.671Z,98712.97
2022-12-01T03:48:50.725Z,98699.84
2022-12-01T03:51:26.013Z,98707.59
2022-12-01T03:54:30.094Z,98706.59
2022-12-01T03:57:02.585Z,98710.97
2022-12-01T03:59:30.887Z,98717.75
2022-12-01T04:01:58.204Z,98712.13
2022-12-01T04:04:24.900Z,98702.53
2022-12-01T04:06:51.595Z,98705.91
2022-12-01T04:09:18.221Z,98710.56
2022-12-01T04:12:03.385Z,98719.75
2022-12-01T04:14:30.395Z,98723.09
2022-12-01T04:16:56.999Z,98724.25
2022-12-01T04:19:23.619Z,98718.34
2022-12-01T04:21:50.297Z,98731.31
2022-12-01T04:24:16.888Z,98730.88
2022-12-01T04:26:44.538Z,98732.59
2022-12-01T04:29:12.715Z,98740.94
2022-12-01T04:31:39.415Z,98730.34
2022-12-01T04:34:06.336Z,98745.31
2022-12-01T04:36:34.725Z,98746.00
2022-12-01T04:39:02.175Z,98749.00
2022-12-01T04:41:29.775Z,98742.38
2022-12-01T04:43:56.964Z,98753.38
2022-12-01T04:46:24.691Z,98740.28
2022-12-01T04:48:51.629Z,98747.47
2022-12-01T04:51:18.502Z,98746.44
2022-12-01T04:53:45.104Z,98750.28
2022-12-01T04:56:11.767Z,98749.00
2022-12-01T04:58:38.817Z,98755.38
2022-12-01T05:01:08.872Z,98758.06
2022-12-01T05:03:40.816Z,98751.84
2022-12-01T05:06:11.396Z,98750.03
2022-12-01T05:08:38.166Z,98753.97
2022-12-01T05:11:07.675Z,98772.72
2022-12-01T05:13:36.653Z,98769.75
2022-12-01T05:16:08.220Z,98772.44
2022-12-01T05:18:35.251Z,98770.31
2022-12-01T05:21:03.906Z,98767.63
2022-12-01T05:23:33.436Z,98759.88
2022-12-01T05:26:01.047Z,98772.00
2022-12-01T05:28:28.574Z,98763.28
2022-12-01T05:30:55.732Z,98762.41
2022-12-01T05:33:23.831Z,98763.00
2022-12-01T05:35:53.635Z,98746.91
2022-12-01T05:38:20.549Z,98755.50
2022-12-01T05:40:55.385Z,98754.78
2022-12-01T05:43:28.661Z,98743.53
2022-12-01T05:45:57.150Z,98747.22
2022-12-01T05:48:24.073Z,98746.66
2022-12-01T05:50:51.079Z,98744.84
2022-12-01T05:53:18.836Z,98749.47
2022-12-01T05:55:46.001Z,98752.56
2022-12-01T05:58:12.679Z,98755.69
2022-12-01T06:00:45.265Z,98755.69
2022-12-01T06:03:12.873Z,98751.31
2022-12-01T06:05:39.658Z,98757.09
2022-12-01T06:08:07.027Z,98754.28
2022-12-01T06:10:33.690Z,98758.78
2022-12-01T06:13:00.326Z,98756.78
2022-12-01T06:15:27.374Z,98754.09
2022-12-01T06:17:54.132Z,98747.09
2022-12-01T06:20:20.760Z,98753.13
2022-12-01T06:22:48.484Z,98745.66
2022-12-01T06:25:15.269Z,98747.06
2022-12-01T06:27:41.840Z,98747.22
2022-12-01T06:30:09.258Z,98745.78
2022-12-01T06:32:36.295Z,98748.06
2022-12-01T06:35:03.045Z,98750.16
2022-12-01T06:37:29.710Z,98760.44
2022-12-01T06:39:56.400Z,98749.03
2022-12-01T06:42:23.020Z,98752.28
2022-12-01T06:44:49.698Z,98750.28
2022-12-01T06:47:16.342Z,98748.88
2022-12-01T06:49:42.952Z,98751.56
2022-12-01T06:52:10.103Z,98753.97
2022-12-01T06:54:37.621Z,98746.50
2022-12-01T06:57:04.783Z,98755.06
2022-12-01T06:59:31.731Z,98750.69
2022-12-01T07:01:58.813Z,98750.41
2022-12-01T07:04:25.627Z,98741.38
2022-12-01T07:06:52.215Z,98734.63
2022-12-01T07:09:19.033Z,98751.41
2022-12-01T07:11:45.658Z,98747.72
2022-12-01T07:14:20.248Z,98745.59
2022-12-01T07:16:47.009Z,98751.38
2022-12-01T07:19:13.734Z,98745.88
2022-12-01T07:21:40.328Z,98745.28
2022-12-01T07:24:07.347Z,98762.63
2022-12-01T07:26:34.101Z,98758.97
2022-12-01T07:29:00.861Z,98762.63
2022-12-01T07:31:27.518Z,98758.97
2022-12-01T07:33:54.223Z,98752.75
2022-12-01T07:36:21.114Z,98761.75
2022-12-01T07:38:47.772Z,98763.31
2022-12-01T07:41:19.061Z,98770.91
2022-12-01T07:43:46.623Z,98767.97
2022-12-01T07:46:22.773Z,98765.53
2022-12-01T07:48:50.839Z,98761.59
2022-12-01T07:51:17.804Z,98761.84
2022-12-01T07:53:49.399Z,98770.75
2022-12-01T07:56:16.830Z,98767.97
2022-12-01T07:58:44.085Z,98768.34
2022-12-01T08:01:16.472Z,98765.66
2022-12-01T08:03:43.600Z,98762.84
2022-12-01T08:06:11.500Z,98763.69
2022-12-01T08:08:40.825Z,98765.09
2022-12-01T08:11:11.236Z,98773.53
2022-12-01T08:13:38.965Z,98770.28
2022-12-01T08:16:07.561Z,98773.13
2022-12-01T08:18:39.069Z,98774.09
2022-12-01T08:21:06.956Z,98769.47
2022-12-01T08:23:33.892Z,98770.44
2022-12-01T08:26:05.596Z,98776.78
2022-12-01T08:28:35.368Z,98769.50
2022-12-01T08:31:14.497Z,98775.66
2022-12-01T08:33:41.263Z,98761.41
2022-12-01T08:36:08.286Z,98768.06
2022-12-01T08:38:35.620Z,98764.78
2022-12-01T08:41:04.144Z,98764.22
2022-12-01T08:46:17.689Z,98753.19
2022-12-01T08:48:44.437Z,98751.38
2022-12-01T08:51:16.562Z,98743.03
2022-12-01T08:53:47.076Z,98748.03
2022-12-01T08:56:20.246Z,98747.44
2022-12-01T08:58:47.157Z,98734.78
2022-12-01T09:01:16.555Z,98729.88
2022-12-01T09:03:44.233Z,98740.16
2022-12-01T09:06:16.768Z,98735.53
2022-12-01T09:08:43.663Z,98728.34
2022-12-01T09:11:12.915Z,98727.81
2022-12-01T09:13:40.760Z,98720.91
2022-12-01T09:16:12.906Z,98729.38
2022-12-01T09:18:40.002Z,98725.84
2022-12-01T09:21:24.796Z,98716.72
2022-12-01T09:23:51.842Z,98727.44
2022-12-01T09:26:20.021Z,98717.72
2022-12-01T09:28:49.010Z,98712.22
2022-12-01T09:31:18.512Z,98711.69
2022-12-01T09:33:45.327Z,98715.88
2022-12-01T09:36:12.007Z,98715.19
2022-12-01T09:38:39.393Z,98710.97
2022-12-01T09:41:19.375Z,98710.53
2022-12-01T09:43:56.819Z,98700.25
2022-12-01T09:46:28.697Z,98699.13
2022-12-01T09:48:57.310Z,98694.22
2022-12-01T09:51:26.522Z,98698.66
2022-12-01T09:53:56.761Z,98692.19
2022-12-01T09:56:49.594Z,98688.63
2022-12-01T09:59:23.705Z,98688.78
2022-12-01T10:02:00.314Z,98689.63
2022-12-01T10:04:48.535Z,98693.69
2022-12-01T10:07:20.708Z,98696.50
2022-12-01T10:10:01.205Z,98683.97
2022-12-01T10:12:34.113Z,98692.00
2022-12-01T10:15:12.933Z,98689.81
2022-12-01T10:18:03.492Z,98695.28
2022-12-01T10:20:44.147Z,98690.09
2022-12-01T10:23:24.992Z,98682.66
2022-12-01T10:25:54.588Z,98675.03
2022-12-01T10:28:39.128Z,98677.94
2022-12-01T10:31:21.256Z,98673.00
2022-12-01T10:34:05.340Z,98672.41
2022-12-01T10:36:33.814Z,98672.94
2022-12-01T10:39:02.665Z,98664.31
2022-12-01T10:41:33.842Z,98671.06
2022-12-01T10:44:03.070Z,98672.94
2022-12-01T10:46:52.489Z,98673.69
2022-12-01T10:49:20.466Z,98674.22
2022-12-01T10:51:53.103Z,98674.09
2022-12-01T10:54:20.532Z,98679.59
2022-12-01T10:56:51.233Z,98674.53
2022-12-01T10:59:56.159Z,98666.19
2022-12-01T11:02:26.143Z,98668.75
2022-12-01T11:04:52.979Z,98676.25
2022-12-01T11:07:24.830Z,98672.72
2022-12-01T11:10:28.925Z,98667.09
2022-12-01T11:13:03.037Z,98670.94
2022-12-01T11:15:34.393Z,98672.19
2022-12-01T11:18:23.779Z,98674.44
2022-12-01T11:21:16.770Z,98683.78
2022-12-01T11:23:51.488Z,98679.00
2022-12-01T11:26:30.695Z,98676.00
2022-12-01T11:29:02.334Z,98670.06
2022-12-01T11:31:42.263Z,98675.41
2022-12-01T11:34:34.603Z,98677.53
2022-12-01T11:37:04.388Z,98680.09
2022-12-01T11:39:38.700Z,98667.38
2022-12-01T11:42:19.440Z,98658.25
2022-12-01T11:44:57.423Z,98645.56
2022-12-01T11:47:26.540Z,98652.69
2022-12-01T11:49:58.859Z,98649.63
2022-12-01T11:52:27.757Z,98645.50
2022-12-01T11:54:59.962Z,98638.56
2022-12-01T11:57:34.666Z,98638.00
2022-12-01T12:00:05.911Z,98630.06
2022-12-01T12:02:51.700Z,98624.13
2022-12-01T12:05:33.372Z,98634.25
2022-12-01T12:08:13.693Z,98637.63
2022-12-01T12:11:02.096Z,98643.09
2022-12-01T12:13:56.267Z,98642.59
2022-12-01T12:16:33.526Z,98646.34
2022-12-01T12:19:39.234Z,98652.16
2022-12-01T12:22:29.150Z,98648.94
2022-12-01T12:25:18.948Z,98646.56
2022-12-01T12:28:14.991Z,98650.81
2022-12-01T12:31:03.388Z,98657.78
2022-12-01T12:34:00.818Z,98649.34
2022-12-01T12:36:43.480Z,98653.53
2022-12-01T12:39:17.014Z,98647.78
2022-12-01T12:41:50.413Z,98656.66
2022-12-01T12:44:39.298Z,98647.41
2022-12-01T12:47:18.040Z,98655.09
2022-12-01T12:50:44.946Z,98653.16
2022-12-01T12:53:20.124Z,98659.72
2022-12-01T12:55:52.829Z,98663.97
2022-12-01T12:58:22.596Z,98654.78
2022-12-01T13:01:01.312Z,98659.84
2022-12-01T13:03:43.183Z,98661.84
2022-12-01T13:06:25.567Z,98652.25
2022-12-01T13:09:10.366Z,98654.66
2022-12-01T13:11:48.063Z,98655.78
2022-12-01T13:14:20.928Z,98665.75
2022-12-01T13:16:50.507Z,98661.28
2022-12-01T13:19:24.418Z,98663.53
2022-12-01T13:21:53.470Z,98667.75
2022-12-01T13:24:24.606Z,98654.25
2022-12-01T13:27:17.528Z,98657.88
2022-12-01T13:29:48.799Z,98654.78
2022-12-01T13:32:33.893Z,98661.44
2022-12-01T13:35:03.258Z,98649.78
2022-12-01T13:37:35.701Z,98656.09
2022-12-01T13:40:20.192Z,98655.38
2022-12-01T13:43:20.209Z,98657.06
2022-12-01T13:45:48.430Z,98653.81
2022-12-01T13:48:52.084Z,98655.94
2022-12-01T13:51:18.941Z,98666.09
2022-12-01T13:54:05.554Z,98653.16
2022-12-01T13:56:39.590Z,98656.09
2022-12-01T13:59:46.118Z,98658.75
2022-12-01T14:02:33.050Z,98658.19
2022-12-01T14:05:36.939Z,98659.06
2022-12-01T14:08:19.664Z,98654.97
2022-12-01T14:11:23.889Z,98654.81
2022-12-01T14:13:57.731Z,98642.13
2022-12-01T14:16:25.551Z,98647.25
2022-12-01T14:18:56.724Z,98645.66
2022-12-01T14:22:01.034Z,98648.47
2022-12-01T14:24:40.542Z,98647.50
2022-12-01T14:27:08.959Z,98650.00
2022-12-01T14:29:43.212Z,98652.53
2022-12-01T14:32:09.752Z,98653.41
2022-12-01T14:34:38.190Z,98648.88
2022-12-01T14:37:23.125Z,98646.66
2022-12-01T14:39:58.665Z,98645.50
2022-12-01T14:42:49.530Z,98642.44
2022-12-01T14:45:22.442Z,98648.34
2022-12-01T14:48:01.456Z,98651.03
2022-12-01T14:50:46.471Z,98647.75
2022-12-01T14:53:42.003Z,98652.59
2022-12-01T14:56:12.676Z,98654.97
2022-12-01T14:58:39.485Z,98660.63
2022-12-01T15:01:07.555Z,98658.09
2022-12-01T15:03:54.755Z,98662.44
2022-12-01T15:06:23.536Z,98666.66
2022-12-01T15:12:03.212Z,98677.53
2022-12-01T15:14:39.031Z,98672.03
2022-12-01T15:17:08.946Z,98686.69
2022-12-01T15:19:40.692Z,98674.56
2022-12-01T15:22:17.845Z,98678.53
2022-12-01T15:24:45.211Z,98689.53
2022-12-01T15:27:25.244Z,98680.50
2022-12-01T15:29:52.504Z,98685.56
2022-12-01T15:32:21.757Z,98685.28
2022-12-01T15:34:52.027Z,98687.22
2022-12-01T15:37:26.117Z,98687.81
2022-12-01T15:40:00.909Z,98694.03
2022-12-01T15:42:39.601Z,98695.00
2022-12-01T15:45:15.344Z,98701.75
2022-12-01T15:47:43.464Z,98704.84
2022-12-01T15:50:31.354Z,98702.19
2022-12-01T15:53:00.324Z,98696.69
2022-12-01T15:55:35.076Z,98689.22
2022-12-01T15:58:06.317Z,98684.16
2022-12-01T16:00:33.182Z,98685.13
2022-12-01T16:03:02.094Z,98688.66
2022-12-01T16:05:35.212Z,98694.56
2022-12-01T16:08:19.519Z,98691.91
2022-12-01T16:10:46.707Z,98694.72
2022-12-01T16:13:35.004Z,98701.63
2022-12-01T16:16:21.086Z,98704.13
2022-12-01T16:19:02.804Z,98705.84
2022-12-01T16:21:43.949Z,98708.69
2022-12-01T16:24:16.200Z,98703.31
2022-12-01T16:26:51.475Z,98702.44
2022-12-01T16:29:20.963Z,98710.34
2022-12-01T16:32:19.903Z,98696.81
2022-12-01T16:34:46.324Z,98690.75
2022-12-01T16:37:13.906Z,98689.94
2022-12-01T16:39:40.619Z,98695.13
2022-12-01T16:42:11.161Z,98699.94
2022-12-01T16:44:37.793Z,98702.44
2022-12-01T16:47:14.142Z,98708.09
2022-12-01T16:49:40.848Z,98708.09
2022-12-01T16:52:36.485Z,98700.38
2022-12-01T16:54:54.103Z,98711.34
2022-12-01T16:57:20.702Z,98716.84
2022-12-01T16:59:47.295Z,98718.25
2022-12-01T17:02:13.916Z,98725.00
2022-12-01T17:04:40.585Z,98738.78
2022-12-01T17:07:07.209Z,98729.50
2022-12-01T17:09:33.950Z,98743.00
2022-12-01T17:12:00.604Z,98737.34
2022-12-01T17:14:27.320Z,98733.13
2022-12-01T17:16:53.929Z,98741.88
2022-12-01T17:19:20.601Z,98750.03
2022-12-01T17:21:47.218Z,98749.47
2022-12-01T17:24:17.671Z,98750.31
2022-12-01T17:26:45.708Z,98746.91
2022-12-01T17:29:12.318Z,98755.38
2022-12-01T17:31:39.056Z,98755.38
2022-12-01T17:34:05.716Z,98763.41
2022-12-01T17:36:32.278Z,98759.03
2022-12-01T17:38:58.946Z,98762.13
2022-12-01T17:41:32.196Z,98759.34
2022-12-01T17:44:02.322Z,98761.88
2022-12-01T17:46:30.433Z,98765.25
2022-12-01T17:48:57.112Z,98763.00
2022-12-01T17:51:23.727Z,98770.59
2022-12-01T17:53:50.416Z,98767.09
2022-12-01T17:56:17.543Z,98773.16
2022-12-01T17:58:44.350Z,98771.06
2022-12-01T18:01:17.113Z,98766.13
2022-12-01T18:03:44.069Z,98755.41
2022-12-01T18:06:10.739Z,98756.84
2022-12-01T18:08:37.941Z,98768.94
2022-12-01T18:11:10.216Z,98766.97
2022-12-01T18:13:45.111Z,98771.06
2022-12-01T18:16:20.710Z,98767.25
2022-12-01T18:18:47.958Z,98771.50
2022-12-01T18:21:16.887Z,98770.78
2022-12-01T18:23:51.980Z,98769.25
2022-12-01T18:26:21.947Z,98774.31
2022-12-01T18:28:59.016Z,98769.81
2022-12-01T18:31:26.482Z,98774.31
2022-12-01T18:33:53.602Z,98770.38
2022-12-01T18:36:24.872Z,98765.44
2022-12-01T18:38:54.543Z,98761.50
2022-12-01T18:41:21.279Z,98774.31
2022-12-01T18:43:47.995Z,98772.63
2022-12-01T18:46:16.982Z,98775.28
2022-12-01T18:48:45.867Z,98782.19
2022-12-01T18:51:13.108Z,98779.22
2022-12-01T18:53:39.904Z,98782.59
2022-12-01T18:56:11.728Z,98785.44
2022-12-01T18:58:39.946Z,98783.88
2022-12-01T19:01:27.762Z,98783.75
2022-12-01T19:03:55.822Z,98782.75
2022-12-01T19:06:22.935Z,98775.84
2022-12-01T19:08:49.953Z,98775.72
2022-12-01T19:11:17.018Z,98780.22
2022-12-01T19:13:44.215Z,98774.44
2022-12-01T19:16:17.052Z,98776.84
2022-12-01T19:18:44.689Z,98780.34
2022-12-01T19:21:14.133Z,98774.56
2022-12-01T19:23:40.919Z,98774.56
2022-12-01T19:26:11.193Z,98784.16
2022-12-01T19:28:38.587Z,98778.09
2022-12-01T19:31:10.060Z,98778.81
2022-12-01T19:33:37.298Z,98772.91
2022-12-01T19:36:09.332Z,98774.28
2022-12-01T19:38:36.198Z,98774.72
2022-12-01T19:41:03.804Z,98778.25
2022-12-01T19:43:30.587Z,98778.38
2022-12-01T19:45:57.176Z,98777.66
2022-12-01T19:48:23.746Z,98782.91
2022-12-01T19:50:50.355Z,98782.59
2022-12-01T19:53:16.939Z,98774.44
2022-12-01T19:55:43.640Z,98784.16
2022-12-01T19:58:10.281Z,98773.31
2022-12-01T20:00:36.907Z,98774.19
2022-12-01T20:03:03.983Z,98777.66
2022-12-01T20:05:32.559Z,98775.28
2022-12-01T20:07:59.333Z,98769.50
2022-12-01T20:10:26.010Z,98774.72
2022-12-01T20:12:52.929Z,98767.97
2022-12-01T20:15:19.681Z,98774.28
2022-12-01T20:17:46.260Z,98774.44
2022-12-01T20:20:13.219Z,98781.75
2022-12-01T20:22:39.876Z,98780.91
2022-12-01T20:25:06.785Z,98780.06
2022-12-01T20:27:33.461Z,98780.78
2022-12-01T20:30:00.095Z,98778.41
2022-12-01T20:32:26.822Z,98784.00
2022-12-01T20:34:53.661Z,98774.28
2022-12-01T20:37:20.425Z,98777.06
2022-12-01T20:39:47.456Z,98779.50
2022-12-01T20:42:14.120Z,98782.16
2022-12-01T20:44:40.834Z,98784.59
2022-12-01T20:47:07.519Z,98789.78
2022-12-01T20:49:34.378Z,98799.63
2022-12-01T20:52:01.193Z,98786.06
2022-12-01T20:54:29.328Z,98798.03
2022-12-01T20:56:56.854Z,98795.81
2022-12-01T20:59:23.553Z,98796.78
2022-12-01T21:01:50.279Z,98797.31
2022-12-01T21:04:17.501Z,98800.72
2022-12-01T21:06:44.163Z,98800.72
2022-12-01T21:09:12.398Z,98797.31
2022-12-01T21:12:06.627Z,98795.91
2022-12-01T21:14:49.543Z,98798.03
2022-12-01T21:17:49.948Z,98809.84
2022-12-01T21:20:25.195Z,98814.38
2022-12-01T21:22:53.795Z,98802.78
2022-12-01T21:25:24.489Z,98807.00
2022-12-01T21:27:51.941Z,98810.81
2022-12-01T21:30:22.096Z,98807.16
2022-12-01T21:32:49.571Z,98808.56
2022-12-01T21:35:23.609Z,98811.53
2022-12-01T21:37:54.498Z,98821.81
2022-12-01T21:40:26.067Z,98823.06
2022-12-01T21:42:53.411Z,98826.28
2022-12-01T21:45:29.189Z,98816.72
2022-12-01T21:48:01.379Z,98811.06
2022-12-01T21:50:28.129Z,98814.63
2022-12-01T21:52:54.820Z,98817.88
2022-12-01T21:55:21.399Z,98815.34
2022-12-01T21:57:49.737Z,98819.72
2022-12-01T22:00:34.717Z,98820.69
2022-12-01T22:03:20.018Z,98816.78
2022-12-01T22:06:13.496Z,98817.88
2022-12-01T22:08:40.103Z,98822.69
2022-12-01T22:11:27.333Z,98822.28
2022-12-01T22:14:09.092Z,98821.31
2022-12-01T22:16:40.301Z,98798.31
2022-12-01T22:19:30.537Z,98806.13
2022-12-01T22:22:09.401Z,98805.00
2022-12-01T22:24:41.745Z,98820.19
2022-12-01T22:27:29.405Z,98809.22
2022-12-01T22:30:23.588Z,98804.13
2022-12-01T22:32:53.204Z,98812.59
2022-12-01T22:35:42.319Z,98818.25
2022-12-01T22:38:08.862Z,98806.00
2022-12-01T22:40:58.697Z,98801.03
2022-12-01T22:43:47.100Z,98804.72
2022-12-01T22:46:30.447Z,98782.31
2022-12-01T22:49:06.031Z,98799.53
2022-12-01T22:52:13.872Z,98788.81
2022-12-01T22:54:46.826Z,98782.63
2022-12-01T22:57:38.826Z,98775.28
2022-12-01T23:00:15.004Z,98778.53
2022-12-01T23:02:41.818Z,98786.00
2022-12-01T23:05:25.403Z,98781.34
2022-12-01T23:07:53.474Z,98779.94
2022-12-01T23:10:25.881Z,98784.03
2022-12-01T23:12:54.963Z,98786.28
2022-12-01T23:15:38.069Z,98769.81
2022-12-01T23:18:22.580Z,98774.03
2022-12-01T23:20:57.439Z,98770.75
2022-12-01T23:23:27.990Z,98771.78
2022-12-01T23:25:54.913Z,98767.28
2022-12-01T23:28:21.805Z,98765.72
2022-12-01T23:30:53.293Z,98782.47
2022-12-01T23:33:24.975Z,98776.84
2022-12-01T23:36:02.231Z,98774.16
2022-12-01T23:38:31.077Z,98776.28
2022-12-01T23:41:01.778Z,98789.22
2022-12-01T23:43:41.765Z,98787.84
2022-12-01T23:46:12.639Z,98779.81
2022-12-01T23:49:07.683Z,98785.94
2022-12-01T23:51:40.172Z,98796.78
2022-12-01T23:54:29.182Z,98782.84
2022-12-01T23:56:58.603Z,98800.78
2022-12-01T23:59:25.631Z,98795.69
